KRHI/RHI METAR and TAF weather

Enter ICAO airport designator
Station Type Date Time Source
KRHI METAR 2020/08/12 16:53 UTC NOAA

KRHI 121653Z AUTO VRB03KT 10SM CLR 27/13 A3013 RMK AO2 SLP199 T02720128


Station Type Date Time Source
KRHI Decoded METAR 2020/08/12 16:53 UTC NOAA

RHINELANDER-ONEIDA CO AIRPORT , WI, United States (KRHI) 45-38N 89-29W 485M
Aug 12, 2020 - 12:53 PM EDT / 2020.08.12 1653 UTC
Wind: Variable at 3 MPH (3 KT):0
Visibility: 10 mile(s):0
Sky conditions: clear
Temperature: 81.0 F (27.2 C)
Dew Point: 55.0 F (12.8 C)
Relative Humidity: 40%
Pressure (altimeter): 30.13 in. Hg (1020 hPa)
ob: KRHI 121653Z AUTO VRB03KT 10SM CLR 27/13 A3013 RMK AO2 SLP199 T02720128
cycle: 17

Station Type Date Time Source
KRHI TAF 2020/08/12 18:22 UTC NOAA

TAF KRHI 121720Z 1218/1318 19005KT P6SM SCT070 BKN250
FM130100 13002KT P6SM SCT100 BKN250
FM131500 16007KT P6SM BKN250

Example: see airport list